Terminal Aerodrome Forecast
Issued by NWS Cleveland, OH

Home | Current Version | Previous Version | Graphics & Text | Print | Product List | Glossary On
Versions: 1 2 3 4 5 6 7 8 9 10 11 12 13 14 15 16
000
FTUS41 KCLE 202330
TAFMFD
TAF
KMFD 202330Z 2100/2124 22010KT P6SM SCT050
     FM210300 22006KT P6SM VCSH BKN040 OVC080
     FM211000 24006KT P6SM BKN040
     FM211800 29008KT P6SM SCT040=

USA.gov is the U.S. government's official web portal to all federal, state and local government web resources and services.